Pluma Del Pato, Argentina
Current Conditions -  °F | °C
As of 5:00 PM on Friday 24 Oct 2014 (Local Time) from SLYA Reporting Station
Few Clouds Few Clouds  
Wind Chill: 91°   Ceiling: Unl
Heat Index: 95°   Visibility: 6mi
Dew Point: 68°   Wind: 14mph
Humidity: 46%   Direction: 180°S
Pressure: 29.85"   Gusts: NA
Location:  23.38°S, 63.1°W
Report Text: SLYA 242000Z 18012KT 9999 FEW023 FEW025TCU 33/20 Q1011
Loading
Personal Weather Stations






























Interactive Weather Map
Tropical Storm Tracking
New forecast layout! Learn more

10-Day Weather Forecast

Advertisements
Track Severe Weather on mobile